Time;durP1;ratioP1;P1;durP2;ratioP2;P2;SDS_P1;SDS_P2;PMS_P1;PMS_P2;Temp;Humidity;BMP_temperature;BMP_pressure;BME280_temperature;BME280_humidity;BME280_pressure;Samples;Min_cycle;Max_cycle;Signal;HPM_P1;HPM_P2
2022/08/19 00:02:14;;;;;;;11.82;3.53;;;20.40;85.50;;;;;;5055131;28;20021;-12
2022/08/19 00:04:40;;;;;;;11.18;3.38;;;20.50;85.40;;;;;;5055082;28;20070;-11
2022/08/19 00:07:06;;;;;;;6.10;2.85;;;20.40;85.20;;;;;;5054400;28;20477;-12
2022/08/19 00:09:33;;;;;;;6.95;2.70;;;20.50;84.80;;;;;;5054685;28;20033;-12
2022/08/19 00:11:59;;;;;;;8.75;3.00;;;20.50;84.70;;;;;;5054761;28;20025;-12
2022/08/19 00:14:27;;;;;;;11.73;3.63;;;20.50;84.70;;;;;;5053369;28;20397;-12
2022/08/19 00:16:54;;;;;;;9.93;3.28;;;20.50;85.00;;;;;;5054996;28;20021;-11
2022/08/19 00:19:20;;;;;;;10.35;3.47;;;20.50;84.90;;;;;;5054793;28;20056;-12
2022/08/19 00:21:47;;;;;;;9.00;3.35;;;20.50;85.10;;;;;;5054678;28;20036;-12
2022/08/19 00:24:15;;;;;;;8.27;3.13;;;20.50;84.90;;;;;;5055064;28;20028;-12
2022/08/19 00:26:45;;;;;;;10.48;3.22;;;20.50;84.80;;;;;;5054359;28;20473;-12
2022/08/19 00:29:14;;;;;;;7.38;3.13;;;20.50;84.90;;;;;;5054146;28;20032;-13
2022/08/19 00:31:42;;;;;;;10.05;3.13;;;20.50;85.20;;;;;;5054463;28;20063;-12
2022/08/19 00:34:09;;;;;;;8.57;3.53;;;20.40;85.70;;;;;;5054189;28;20055;-13
2022/08/19 00:36:35;;;;;;;14.05;4.00;;;20.50;85.90;;;;;;5054192;28;20037;-12
2022/08/19 00:39:01;;;;;;;10.38;3.90;;;20.40;86.50;;;;;;5053893;28;20028;-11
2022/08/19 00:41:28;;;;;;;13.07;3.90;;;20.30;86.60;;;;;;5054040;28;20104;-12
2022/08/19 00:44:04;;;;;;;11.23;4.18;;;20.30;86.60;;;;;;5054353;28;20047;-12
2022/08/19 00:46:32;;;;;;;12.13;4.00;;;20.30;86.50;;;;;;5054346;28;20029;-12
2022/08/19 00:48:59;;;;;;;15.57;4.40;;;20.30;86.60;;;;;;5053718;28;20029;-10
2022/08/19 00:51:32;;;;;;;10.85;4.30;;;20.20;87.00;;;;;;5054167;28;20033;-12
2022/08/19 00:54:00;;;;;;;10.00;3.70;;;20.30;87.00;;;;;;5053655;28;20053;-11
2022/08/19 00:56:27;;;;;;;10.40;4.00;;;20.20;87.60;;;;;;5053781;28;20094;-12
2022/08/19 00:58:56;;;;;;;10.43;3.83;;;20.00;87.40;;;;;;5053876;28;20025;-12
2022/08/19 01:01:22;;;;;;;15.68;5.60;;;20.00;87.80;;;;;;5053441;28;20392;-10
2022/08/19 01:03:48;;;;;;;12.77;4.63;;;19.90;89.30;;;;;;5053655;28;20017;-11
2022/08/19 01:06:14;;;;;;;12.63;3.70;;;19.80;90.40;;;;;;5053657;28;20029;-10
2022/08/19 01:08:40;;;;;;;17.23;5.40;;;19.80;90.50;;;;;;5053499;28;20036;-11
2022/08/19 01:11:08;;;;;;;13.75;4.53;;;19.70;90.40;;;;;;5053371;28;20036;-11
2022/08/19 01:13:36;;;;;;;11.55;4.45;;;19.60;90.40;;;;;;5053294;28;20032;-11
2022/08/19 01:16:08;;;;;;;11.13;4.43;;;19.60;90.60;;;;;;5053798;28;20029;-12
2022/08/19 01:18:41;;;;;;;12.00;4.87;;;19.60;90.80;;;;;;5053750;28;20051;-11
2022/08/19 01:21:22;;;;;;;12.82;4.88;;;19.60;91.20;;;;;;5054024;28;20263;-10
2022/08/19 01:23:48;;;;;;;14.48;5.45;;;19.60;91.50;;;;;;5053212;28;20114;-10
2022/08/19 01:26:18;;;;;;;15.73;5.03;;;19.50;91.60;;;;;;5053288;28;20039;-10
2022/08/19 01:28:46;;;;;;;12.43;4.88;;;19.50;91.70;;;;;;5053662;28;20032;-11
2022/08/19 01:31:18;;;;;;;14.85;4.80;;;19.50;91.80;;;;;;5053260;28;20025;-11
2022/08/19 01:33:46;;;;;;;11.00;3.90;;;19.40;91.80;;;;;;5054321;28;20029;-11
2022/08/19 01:36:26;;;;;;;15.88;5.20;;;19.40;91.70;;;;;;5053223;28;20036;-11
2022/08/19 01:38:53;;;;;;;15.98;5.13;;;19.40;91.80;;;;;;5053552;28;20025;-10
2022/08/19 01:41:20;;;;;;;12.68;4.60;;;19.40;92.00;;;;;;5053413;28;20102;-10
2022/08/19 01:43:46;;;;;;;13.25;4.95;;;19.40;92.10;;;;;;5053091;28;20025;-11
2022/08/19 01:46:12;;;;;;;12.27;5.05;;;19.40;92.20;;;;;;5053379;28;20036;-10
2022/08/19 01:48:40;;;;;;;17.92;5.22;;;19.40;92.20;;;;;;5051816;28;20049;-10
2022/08/19 01:51:07;;;;;;;15.13;5.30;;;19.40;92.30;;;;;;5053079;28;20032;-10
2022/08/19 01:53:34;;;;;;;13.63;5.00;;;19.40;92.30;;;;;;5052674;28;20137;-10
2022/08/19 01:56:01;;;;;;;12.20;4.68;;;19.40;92.30;;;;;;5053252;28;20430;-10
2022/08/19 01:58:36;;;;;;;18.73;5.30;;;19.40;92.30;;;;;;5052919;28;20063;-10
2022/08/19 02:01:04;;;;;;;14.48;4.90;;;19.40;92.30;;;;;;5053116;28;20109;-10
2022/08/19 02:03:30;;;;;;;16.70;5.07;;;19.40;92.30;;;;;;5053154;28;20024;-10
2022/08/19 02:06:02;;;;;;;11.18;5.22;;;19.40;92.30;;;;;;5052846;28;20399;-10
2022/08/19 02:08:29;;;;;;;14.02;5.53;;;19.40;92.20;;;;;;5053109;28;20025;-12
2022/08/19 02:10:56;;;;;;;12.43;5.32;;;19.40;92.30;;;;;;5052900;28;20049;-11
2022/08/19 02:13:23;;;;;;;10.93;4.43;;;19.40;92.20;;;;;;5052914;28;20519;-10
2022/08/19 02:15:49;;;;;;;14.50;4.97;;;19.50;92.00;;;;;;5055586;28;20373;-11
2022/08/19 02:18:15;;;;;;;14.80;4.60;;;19.50;91.90;;;;;;5056970;28;20535;-11
2022/08/19 02:20:43;;;;;;;11.00;4.72;;;19.50;91.90;;;;;;5056745;28;20025;-10
2022/08/19 02:23:11;;;;;;;10.90;3.95;;;19.50;91.80;;;;;;5056472;28;20025;-10
2022/08/19 02:25:38;;;;;;;12.75;3.75;;;19.50;91.70;;;;;;5056646;28;20083;-11
2022/08/19 02:28:05;;;;;;;11.63;4.13;;;19.60;91.30;;;;;;5056556;28;20036;-11
2022/08/19 02:30:31;;;;;;;14.57;4.70;;;19.60;91.50;;;;;;5056687;28;20029;-11
2022/08/19 02:32:57;;;;;;;13.65;4.13;;;19.50;91.50;;;;;;5056483;28;20052;-10
2022/08/19 02:35:24;;;;;;;11.73;3.97;;;19.50;91.40;;;;;;5057177;28;20025;-10
2022/08/19 02:40:35;;;;;;;11.60;3.97;;;19.40;91.30;;;;;;5056496;28;20136;-11
2022/08/19 02:43:03;;;;;;;10.38;3.88;;;19.40;91.10;;;;;;5056731;28;20100;-10
2022/08/19 02:45:34;;;;;;;9.63;3.58;;;19.40;91.20;;;;;;5056293;28;20116;-10
2022/08/19 02:48:01;;;;;;;12.18;3.95;;;19.30;90.70;;;;;;5056244;28;20469;-10
2022/08/19 02:50:27;;;;;;;7.72;3.78;;;19.30;90.50;;;;;;5056225;28;20025;-10
2022/08/19 02:52:53;;;;;;;6.53;3.38;;;19.30;91.00;;;;;;5055563;28;20136;-10
2022/08/19 02:55:20;;;;;;;10.82;3.63;;;19.30;90.90;;;;;;5056101;28;20070;-10
2022/08/19 02:57:47;;;;;;;11.93;3.88;;;19.30;91.00;;;;;;5056814;28;20482;-10
2022/08/19 03:00:14;;;;;;;10.32;3.65;;;19.30;91.00;;;;;;5056226;28;20021;-10
2022/08/19 03:02:40;;;;;;;9.98;3.67;;;19.20;91.10;;;;;;5055978;28;20033;-10
2022/08/19 03:05:09;;;;;;;7.72;3.50;;;19.20;91.00;;;;;;5055751;28;20029;-10
2022/08/19 03:07:41;;;;;;;7.72;3.58;;;19.20;91.00;;;;;;5056302;28;20485;-10
2022/08/19 03:10:07;;;;;;;10.30;3.65;;;19.20;90.60;;;;;;5055780;28;20095;-10
2022/08/19 03:12:37;;;;;;;6.85;3.10;;;19.20;90.60;;;;;;5056247;28;20060;-10
2022/08/19 03:15:05;;;;;;;9.93;3.10;;;19.20;90.50;;;;;;5054347;28;20032;-10
2022/08/19 03:17:32;;;;;;;9.65;3.20;;;19.30;90.30;;;;;;5055699;28;20110;-10
2022/08/19 03:19:58;;;;;;;6.60;2.95;;;19.30;90.10;;;;;;5056020;28;20078;-10
2022/08/19 03:22:25;;;;;;;9.10;3.05;;;19.30;90.10;;;;;;5054340;28;20021;-10
2022/08/19 03:24:51;;;;;;;7.82;3.00;;;19.30;90.10;;;;;;5054859;28;20393;-10
2022/08/19 03:27:17;;;;;;;7.38;3.40;;;19.30;89.90;;;;;;5055771;28;20380;-11
2022/08/19 03:29:44;;;;;;;10.30;3.70;;;19.30;89.80;;;;;;5055781;28;20029;-10
2022/08/19 03:32:11;;;;;;;6.07;3.10;;;19.30;89.70;;;;;;5055695;28;20028;-10
2022/08/19 03:34:38;;;;;;;5.15;2.60;;;19.30;89.70;;;;;;5055641;28;20048;-10
2022/08/19 03:37:08;;;;;;;7.30;2.92;;;19.30;89.80;;;;;;5054274;28;20059;-10
2022/08/19 03:39:36;;;;;;;6.32;2.83;;;19.20;89.80;;;;;;5055563;28;20029;-10
2022/08/19 03:42:03;;;;;;;8.80;3.17;;;19.20;89.70;;;;;;5055182;28;20107;-11
2022/08/19 03:44:32;;;;;;;3.13;2.17;;;19.20;89.70;;;;;;5055809;28;20366;-10
2022/08/19 03:46:59;;;;;;;7.15;2.30;;;19.10;89.60;;;;;;5055181;28;20102;-10
2022/08/19 03:49:29;;;;;;;6.10;3.00;;;19.10;89.50;;;;;;5055377;28;20098;-11
2022/08/19 03:52:00;;;;;;;7.97;3.03;;;19.20;89.40;;;;;;5054998;28;20036;-10
2022/08/19 03:54:27;;;;;;;7.03;2.78;;;19.10;89.00;;;;;;5055284;28;20025;-10
2022/08/19 03:56:55;;;;;;;6.38;2.70;;;19.00;88.90;;;;;;5054824;28;20055;-11
2022/08/19 03:59:29;;;;;;;8.23;2.97;;;19.00;88.90;;;;;;5055660;28;20022;-10
2022/08/19 04:01:57;;;;;;;5.50;2.55;;;18.90;89.20;;;;;;5055008;28;20033;-10
2022/08/19 04:04:24;;;;;;;6.65;2.67;;;18.90;89.30;;;;;;5054759;28;20025;-10
2022/08/19 04:06:51;;;;;;;5.60;2.25;;;18.90;89.10;;;;;;5054685;28;20059;-10
2022/08/19 04:09:18;;;;;;;6.15;2.60;;;18.90;89.00;;;;;;5054612;28;20556;-10
2022/08/19 04:11:49;;;;;;;4.07;2.60;;;18.90;88.90;;;;;;5055009;28;20044;-10
2022/08/19 04:14:18;;;;;;;8.15;2.80;;;18.90;88.80;;;;;;5054700;28;20032;-10
2022/08/19 04:16:46;;;;;;;5.10;2.72;;;18.80;88.80;;;;;;5054596;28;20031;-10
2022/08/19 04:19:13;;;;;;;5.70;2.45;;;18.70;88.90;;;;;;5054535;28;20028;-10
2022/08/19 04:21:39;;;;;;;5.45;2.50;;;18.70;88.90;;;;;;5054469;28;20466;-9
2022/08/19 04:24:07;;;;;;;4.30;2.45;;;18.70;88.90;;;;;;5053169;28;20034;-10
2022/08/19 04:26:36;;;;;;;4.57;2.30;;;18.70;89.00;;;;;;5053241;28;20028;-11
2022/08/19 04:29:08;;;;;;;6.40;2.58;;;18.70;88.90;;;;;;5054797;28;20033;-10
2022/08/19 04:31:35;;;;;;;6.97;2.58;;;18.70;88.90;;;;;;5054418;28;20025;-10
2022/08/19 04:34:04;;;;;;;4.97;2.40;;;18.60;88.90;;;;;;5054179;28;20045;-10
2022/08/19 04:36:33;;;;;;;4.45;2.28;;;18.60;88.90;;;;;;5053683;28;20132;-10
2022/08/19 04:39:04;;;;;;;8.10;3.20;;;18.60;88.90;;;;;;5053923;28;20032;-10
2022/08/19 04:44:17;;;;;;;6.57;2.95;;;18.70;88.90;;;;;;5054402;28;20051;-10
2022/08/19 04:46:45;;;;;;;6.63;2.78;;;18.70;89.00;;;;;;5054026;28;20112;-11
2022/08/19 04:49:11;;;;;;;8.73;2.92;;;18.80;89.10;;;;;;5053797;28;20060;-10
2022/08/19 04:51:40;;;;;;;12.98;3.50;;;18.80;89.20;;;;;;5054207;28;20132;-10
2022/08/19 04:54:06;;;;;;;5.72;2.92;;;18.90;89.00;;;;;;5053947;28;20072;-11
2022/08/19 04:56:31;;;;;;;8.32;2.97;;;18.90;88.90;;;;;;5054129;28;20071;-10
2022/08/19 04:58:57;;;;;;;11.82;3.42;;;18.90;88.70;;;;;;5052448;28;20362;-10
2022/08/19 05:01:28;;;;;;;9.02;3.03;;;19.00;88.70;;;;;;5052593;28;20106;-10
2022/08/19 05:03:56;;;;;;;9.63;3.25;;;19.00;88.60;;;;;;5054202;28;20431;-10
2022/08/19 05:06:23;;;;;;;9.07;3.22;;;19.10;88.60;;;;;;5053647;28;20029;-10
2022/08/19 05:08:50;;;;;;;7.18;3.13;;;19.10;88.50;;;;;;5053424;28;20392;-10
2022/08/19 05:11:22;;;;;;;5.15;3.25;;;19.20;88.50;;;;;;5054071;28;20021;-10
2022/08/19 05:13:48;;;;;;;7.68;3.20;;;19.20;88.50;;;;;;5053472;28;20033;-10
2022/08/19 05:16:17;;;;;;;7.32;2.50;;;19.20;88.50;;;;;;5053571;28;20024;-10
2022/08/19 05:24:14;;;;;;;4.90;2.42;;;19.20;88.30;;;;;;5053623;28;20036;-10
2022/08/19 05:26:42;;;;;;;6.05;2.33;;;19.20;88.50;;;;;;5053508;28;20028;-11
2022/08/19 05:29:09;;;;;;;9.18;2.80;;;19.30;88.40;;;;;;5053100;28;20032;-11
2022/08/19 05:31:38;;;;;;;5.22;2.55;;;19.40;88.40;;;;;;5053571;28;20025;-10
2022/08/19 05:34:05;;;;;;;6.00;2.80;;;19.40;88.20;;;;;;5053448;28;20056;-10
2022/08/19 05:36:39;;;;;;;7.32;2.67;;;19.50;88.10;;;;;;5053458;28;20036;-11
2022/08/19 05:39:08;;;;;;;7.68;2.35;;;19.70;88.00;;;;;;5053094;28;20029;-10
2022/08/19 05:41:35;;;;;;;6.47;2.45;;;19.90;87.90;;;;;;5053020;28;20021;-10
2022/08/19 05:44:06;;;;;;;6.43;2.47;;;20.00;88.20;;;;;;5053084;28;20025;-10
2022/08/19 05:46:32;;;;;;;6.53;2.30;;;20.20;87.60;;;;;;5053431;28;20123;-10
2022/08/19 05:48:58;;;;;;;4.97;2.08;;;20.40;87.10;;;;;;5052696;28;20032;-10
2022/08/19 05:51:25;;;;;;;5.85;2.30;;;20.50;86.70;;;;;;5053138;28;20029;-10
2022/08/19 05:53:51;;;;;;;4.07;1.85;;;20.60;86.50;;;;;;5052631;28;20120;-11
2022/08/19 05:56:18;;;;;;;5.85;2.10;;;20.60;86.20;;;;;;5053204;28;20048;-11
2022/08/19 05:58:45;;;;;;;6.85;2.35;;;20.60;85.60;;;;;;5053040;28;20025;-10
2022/08/19 06:01:15;;;;;;;4.63;1.92;;;20.60;85.30;;;;;;5052733;28;20091;-10
2022/08/19 06:03:43;;;;;;;7.03;2.20;;;20.60;85.40;;;;;;5053261;28;20087;-10
2022/08/19 06:06:11;;;;;;;4.13;2.00;;;20.70;85.00;;;;;;5053166;28;20029;-10
2022/08/19 06:08:38;;;;;;;5.60;1.98;;;20.70;84.60;;;;;;5052773;28;20036;-10
2022/08/19 06:11:21;;;;;;;6.72;1.80;;;20.70;84.50;;;;;;5052771;28;20477;-10
2022/08/19 06:13:52;;;;;;;3.63;1.60;;;20.70;83.70;;;;;;5053143;28;20065;-10
2022/08/19 06:16:22;;;;;;;3.50;1.80;;;20.80;83.90;;;;;;5053115;28;20025;-10
2022/08/19 06:19:00;;;;;;;5.65;1.90;;;20.80;83.80;;;;;;5051437;28;20480;-11
2022/08/19 06:21:28;;;;;;;3.67;1.50;;;20.80;83.60;;;;;;5052807;28;20029;-11
2022/08/19 06:23:56;;;;;;;6.22;1.98;;;20.90;83.70;;;;;;5052664;28;20021;-10
2022/08/19 06:26:23;;;;;;;6.93;1.98;;;20.90;83.10;;;;;;5052961;28;20025;-10
2022/08/19 06:28:50;;;;;;;5.03;3.03;;;20.90;83.20;;;;;;5052529;28;20036;-10
2022/08/19 06:31:20;;;;;;;7.03;4.40;;;21.00;83.10;;;;;;5052611;28;20032;-10
2022/08/19 06:33:48;;;;;;;6.30;3.58;;;21.00;83.10;;;;;;5052537;28;20558;-10
2022/08/19 06:36:26;;;;;;;4.80;2.90;;;21.10;83.20;;;;;;5053250;28;20047;-10
2022/08/19 06:38:54;;;;;;;5.85;2.60;;;21.20;83.20;;;;;;5052641;28;20111;-10
2022/08/19 06:41:20;;;;;;;4.57;2.22;;;21.30;83.10;;;;;;5052817;28;20393;-10
2022/08/19 06:43:48;;;;;;;8.05;2.10;;;21.40;82.90;;;;;;5052774;28;20480;-10
2022/08/19 06:46:18;;;;;;;3.83;1.60;;;21.60;81.20;;;;;;5052806;28;20063;-10
2022/08/19 06:48:44;;;;;;;4.72;1.80;;;21.80;81.40;;;;;;5052562;28;20025;-10
2022/08/19 06:51:11;;;;;;;6.38;1.88;;;22.00;79.90;;;;;;5052896;28;20025;-11
2022/08/19 06:53:39;;;;;;;4.65;1.77;;;22.20;79.80;;;;;;5052076;28;20389;-10
2022/08/19 06:56:05;;;;;;;4.35;1.80;;;22.40;79.80;;;;;;5052414;28;20060;-10
2022/08/19 06:58:31;;;;;;;3.63;1.70;;;22.40;79.50;;;;;;5052456;28;20025;-10
2022/08/19 07:01:03;;;;;;;4.13;1.52;;;22.60;79.60;;;;;;5054916;28;20021;-10
2022/08/19 07:03:32;;;;;;;3.17;1.65;;;22.60;78.90;;;;;;5056626;28;20059;-10
2022/08/19 07:06:04;;;;;;;5.45;1.80;;;22.70;78.90;;;;;;5056210;28;20021;-11
2022/08/19 07:08:40;;;;;;;3.58;1.80;;;22.60;78.00;;;;;;5056131;28;20029;-10
2022/08/19 07:11:09;;;;;;;4.00;1.50;;;22.60;77.90;;;;;;5055694;28;20029;-10
2022/08/19 07:13:37;;;;;;;3.08;1.42;;;22.50;78.00;;;;;;5056038;28;20043;-11
2022/08/19 07:16:15;;;;;;;4.10;1.70;;;22.50;78.30;;;;;;5055750;28;20021;-10
2022/08/19 07:18:41;;;;;;;3.53;1.52;;;22.50;78.70;;;;;;5055719;28;20067;-10
2022/08/19 07:21:11;;;;;;;4.28;1.80;;;22.40;79.10;;;;;;5055714;28;20059;-11
2022/08/19 07:23:37;;;;;;;3.25;1.52;;;22.40;79.40;;;;;;5055518;28;20032;-10
2022/08/19 07:26:10;;;;;;;5.45;1.80;;;22.20;79.50;;;;;;5055571;28;20036;-11
2022/08/19 07:28:38;;;;;;;5.13;2.40;;;22.20;79.50;;;;;;5055580;28;20037;-10
2022/08/19 07:31:09;;;;;;;6.00;2.08;;;22.00;79.60;;;;;;5055369;28;20036;-10
2022/08/19 07:33:36;;;;;;;6.45;2.28;;;21.90;79.90;;;;;;5055781;28;20025;-11
2022/08/19 07:36:10;;;;;;;3.35;1.83;;;21.80;80.10;;;;;;5055386;28;20052;-10
2022/08/19 07:38:39;;;;;;;3.20;1.80;;;21.70;80.30;;;;;;5055605;28;20035;-11
2022/08/19 07:41:06;;;;;;;2.38;1.63;;;21.60;80.70;;;;;;5055422;28;20068;-11
2022/08/19 07:43:32;;;;;;;3.35;2.20;;;21.50;80.90;;;;;;5055673;28;20104;-11
2022/08/19 07:45:58;;;;;;;6.22;2.50;;;21.50;81.20;;;;;;5055179;28;20575;-11
2022/08/19 07:48:27;;;;;;;4.43;2.15;;;21.40;81.40;;;;;;5055064;28;20115;-11
2022/08/19 07:51:02;;;;;;;5.93;2.38;;;21.50;81.60;;;;;;5054806;28;20065;-11
2022/08/19 07:53:31;;;;;;;5.10;2.55;;;21.50;81.60;;;;;;5054811;28;20056;-11
2022/08/19 07:56:03;;;;;;;5.05;2.25;;;21.40;81.80;;;;;;5053765;28;20032;-11
2022/08/19 07:58:35;;;;;;;3.83;2.03;;;21.50;82.00;;;;;;5055290;28;20029;-10
2022/08/19 08:01:04;;;;;;;3.95;1.98;;;21.50;82.00;;;;;;5054813;28;20052;-11
2022/08/19 08:09:11;;;;;;;5.15;2.58;;;21.60;82.10;;;;;;5055064;28;20120;-10
2022/08/19 08:11:48;;;;;;;7.07;2.60;;;21.60;81.90;;;;;;5054752;28;20029;-11
2022/08/19 08:14:23;;;;;;;6.63;2.80;;;21.70;82.00;;;;;;5055021;28;20067;-11
2022/08/19 08:16:51;;;;;;;3.22;2.20;;;21.70;81.80;;;;;;5054348;28;20032;-11
2022/08/19 08:19:22;;;;;;;7.10;2.53;;;21.70;81.90;;;;;;5054534;28;20511;-10
2022/08/19 08:21:50;;;;;;;6.88;2.60;;;21.80;82.00;;;;;;5054535;28;20025;-12
2022/08/19 08:24:17;;;;;;;7.85;3.00;;;21.80;82.00;;;;;;5054389;28;20039;-10
2022/08/19 08:26:44;;;;;;;5.68;3.42;;;21.80;82.10;;;;;;5054785;28;20051;-11
2022/08/19 08:29:12;;;;;;;6.22;3.05;;;21.80;82.10;;;;;;5054157;28;20480;-10
2022/08/19 08:31:44;;;;;;;7.55;3.70;;;21.80;82.20;;;;;;5054317;28;20485;-11
2022/08/19 08:34:12;;;;;;;9.77;4.75;;;21.80;82.40;;;;;;5054639;28;20049;-10
2022/08/19 08:36:41;;;;;;;12.05;5.63;;;21.80;82.50;;;;;;5054229;28;20109;-10
2022/08/19 08:39:15;;;;;;;11.70;4.55;;;21.80;82.60;;;;;;5054194;28;20037;-10
2022/08/19 08:42:22;;;;;;;8.88;4.68;;;21.80;82.60;;;;;;5054540;28;20021;-10
2022/08/19 08:44:58;;;;;;;12.35;4.63;;;21.80;82.50;;;;;;5052677;28;20564;-11
2022/08/19 08:47:26;;;;;;;7.93;3.45;;;21.90;82.70;;;;;;5054348;28;20100;-10
2022/08/19 08:50:03;;;;;;;6.93;2.78;;;22.00;81.30;;;;;;5054372;28;20542;-10
2022/08/19 08:52:35;;;;;;;6.85;2.53;;;21.90;80.90;;;;;;5053830;28;20130;-11
2022/08/19 08:55:08;;;;;;;4.90;2.05;;;21.90;79.30;;;;;;5053742;28;20028;-11
2022/08/19 08:57:37;;;;;;;;;;;21.70;79.80;;;;;;5054324;28;20035;-12
2022/08/19 09:00:12;;;;;;;9.38;2.72;;;21.70;79.70;;;;;;5053827;28;19904;-12
2022/08/19 09:02:38;;;;;;;5.03;2.60;;;21.70;79.80;;;;;;5054279;28;20056;-11
2022/08/19 09:05:05;;;;;;;4.22;2.05;;;21.80;79.80;;;;;;5053844;28;20032;-12
2022/08/19 09:07:43;;;;;;;6.70;2.20;;;21.90;79.90;;;;;;5053610;28;20544;-11
2022/08/19 09:10:23;;;;;;;8.73;2.20;;;21.90;79.90;;;;;;5053656;28;20029;-11
2022/08/19 09:12:59;;;;;;;5.70;2.13;;;21.90;79.80;;;;;;5053654;28;20118;-11
2022/08/19 09:15:39;;;;;;;9.25;2.17;;;21.90;80.00;;;;;;5053907;28;20055;-12
2022/08/19 09:18:06;;;;;;;5.47;2.20;;;22.10;80.00;;;;;;5053530;28;20031;-10
2022/08/19 09:20:32;;;;;;;4.22;2.00;;;22.30;79.60;;;;;;5053422;28;20079;-10
2022/08/19 09:22:59;;;;;;;8.20;2.63;;;22.50;79.10;;;;;;5053125;28;20025;-11
2022/08/19 09:25:26;;;;;;;5.78;2.08;;;22.80;78.60;;;;;;5053588;28;20044;-11
2022/08/19 09:27:54;;;;;;;5.28;2.03;;;23.00;77.80;;;;;;5053602;28;20072;-10
2022/08/19 09:30:24;;;;;;;3.63;1.83;;;23.20;77.40;;;;;;5053662;28;20045;-11
2022/08/19 09:32:54;;;;;;;8.30;2.13;;;23.40;76.10;;;;;;5053038;28;20029;-11
2022/08/19 09:35:26;;;;;;;5.30;1.95;;;23.50;75.90;;;;;;5053689;28;20021;-11
2022/08/19 09:37:53;;;;;;;4.15;2.00;;;23.70;75.10;;;;;;5053095;28;20032;-11
2022/08/19 09:40:19;;;;;;;7.90;2.15;;;23.70;74.80;;;;;;5053082;28;20036;-11
2022/08/19 09:42:47;;;;;;;6.28;2.20;;;23.80;74.50;;;;;;5053406;28;20025;-10
2022/08/19 09:45:16;;;;;;;6.82;2.35;;;23.90;73.90;;;;;;5053098;28;20485;-11
2022/08/19 09:47:42;;;;;;;4.63;2.20;;;23.90;73.50;;;;;;5053021;28;20029;-11
2022/08/19 09:50:11;;;;;;;5.05;2.05;;;23.90;73.50;;;;;;5053327;28;20035;-11
2022/08/19 09:52:38;;;;;;;5.80;2.30;;;23.90;73.50;;;;;;5052805;28;20056;-11
2022/08/19 09:55:07;;;;;;;5.75;2.10;;;23.90;73.50;;;;;;5051469;28;20021;-11
2022/08/19 09:57:33;;;;;;;6.57;2.20;;;24.00;73.10;;;;;;5053591;28;20040;-11
2022/08/19 09:59:59;;;;;;;6.65;2.70;;;24.00;72.50;;;;;;5053023;28;20021;-12
2022/08/19 10:02:25;;;;;;;6.82;4.70;;;24.00;72.40;;;;;;5052952;28;20052;-12
2022/08/19 10:07:37;;;;;;;6.15;2.30;;;24.00;72.00;;;;;;5052993;28;20074;-10
2022/08/19 10:10:06;;;;;;;7.57;2.45;;;24.00;71.60;;;;;;5052793;28;20044;-10
2022/08/19 10:12:33;;;;;;;4.75;2.15;;;23.90;72.10;;;;;;5053063;28;20040;-12
2022/08/19 10:15:01;;;;;;;7.18;2.25;;;23.90;72.70;;;;;;5052737;28;20056;-11
2022/08/19 10:17:27;;;;;;;3.63;1.90;;;24.00;72.40;;;;;;5053084;28;20056;-11
2022/08/19 10:19:53;;;;;;;6.05;1.80;;;24.00;71.80;;;;;;5053090;28;20106;-10
2022/08/19 10:22:19;;;;;;;7.03;1.92;;;24.10;70.40;;;;;;5051749;28;20477;-11
2022/08/19 10:24:49;;;;;;;5.43;1.73;;;24.00;70.00;;;;;;5052719;28;20033;-10
2022/08/19 10:27:15;;;;;;;4.57;1.88;;;24.00;68.20;;;;;;5052681;28;20021;-11
2022/08/19 10:29:41;;;;;;;4.88;1.77;;;24.00;69.50;;;;;;5052912;28;20021;-10
2022/08/19 10:32:08;;;;;;;4.53;1.90;;;24.00;68.70;;;;;;5052739;28;20061;-10
2022/08/19 10:34:37;;;;;;;4.13;1.80;;;24.00;68.70;;;;;;5053516;28;20021;-11
2022/08/19 10:37:05;;;;;;;4.28;1.50;;;24.10;69.10;;;;;;5056624;28;20099;-11
2022/08/19 10:39:34;;;;;;;6.72;1.70;;;24.20;69.00;;;;;;5056521;28;20029;-11
2022/08/19 10:42:10;;;;;;;5.55;2.10;;;24.20;69.10;;;;;;5056455;28;20484;-11
2022/08/19 10:44:36;;;;;;;7.05;1.75;;;24.40;68.80;;;;;;5056413;28;20021;-11
2022/08/19 10:47:03;;;;;;;3.25;1.52;;;24.50;68.10;;;;;;5056114;28;20029;-11
2022/08/19 10:49:31;;;;;;;3.50;1.70;;;24.60;67.80;;;;;;5056340;28;20112;-11
2022/08/19 10:57:31;;;;;;;2.83;1.30;;;24.80;66.10;;;;;;5056689;28;20058;-10
2022/08/19 10:59:57;;;;;;;2.80;1.23;;;24.90;65.20;;;;;;5056378;28;20021;-11
2022/08/19 11:02:23;;;;;;;3.20;1.40;;;25.00;65.50;;;;;;5056292;28;20025;-11
2022/08/19 11:04:51;;;;;;;2.78;1.33;;;25.30;65.80;;;;;;5055885;28;20538;-11
2022/08/19 11:07:18;;;;;;;2.60;1.55;;;25.60;65.30;;;;;;5056223;28;20536;-11
2022/08/19 11:09:43;;;;;;;3.97;1.48;;;25.90;63.90;;;;;;5055773;28;20021;-11
2022/08/19 11:12:10;;;;;;;3.10;1.40;;;26.00;63.10;;;;;;5056115;28;20112;-11
2022/08/19 11:14:37;;;;;;;4.57;1.50;;;26.10;63.20;;;;;;5055784;28;20025;-11
2022/08/19 11:17:05;;;;;;;2.90;1.33;;;26.30;62.80;;;;;;5055593;28;20067;-11
2022/08/19 11:19:31;;;;;;;5.28;1.63;;;26.60;62.70;;;;;;5055947;28;20446;-11
2022/08/19 11:22:01;;;;;;;1.98;1.13;;;26.90;62.00;;;;;;5056487;28;20453;-10
2022/08/19 11:24:27;;;;;;;3.95;1.50;;;27.10;61.50;;;;;;5055569;28;20163;-11
2022/08/19 11:27:02;;;;;;;4.95;1.42;;;27.30;61.50;;;;;;5055674;28;20029;-10
2022/08/19 11:29:28;;;;;;;3.40;1.45;;;27.40;60.80;;;;;;5055568;28;20050;-10
2022/08/19 11:31:55;;;;;;;1.70;1.30;;;27.50;60.50;;;;;;5055395;28;20021;-11
2022/08/19 11:34:25;;;;;;;5.68;1.77;;;27.60;59.70;;;;;;5055749;28;20090;-11
2022/08/19 11:36:51;;;;;;;3.63;1.60;;;27.60;58.80;;;;;;5055138;28;20029;-11
2022/08/19 11:39:20;;;;;;;3.20;1.20;;;27.60;58.90;;;;;;5055547;28;20106;-10
2022/08/19 11:41:46;;;;;;;4.28;1.48;;;27.50;59.40;;;;;;5055279;28;20029;-10
2022/08/19 11:44:14;;;;;;;3.75;1.52;;;27.40;59.40;;;;;;5055285;28;20017;-11
2022/08/19 11:46:45;;;;;;;3.75;1.67;;;27.30;59.70;;;;;;5055171;28;20047;-11
2022/08/19 11:49:12;;;;;;;5.65;1.75;;;27.10;59.70;;;;;;5055027;28;20044;-11
2022/08/19 11:51:39;;;;;;;5.43;1.90;;;26.90;59.50;;;;;;5055119;28;20041;-11
2022/08/19 11:54:06;;;;;;;3.83;1.30;;;26.80;60.00;;;;;;5055206;28;20053;-11
2022/08/19 11:56:32;;;;;;;2.05;1.15;;;26.60;61.00;;;;;;5055043;28;20039;-10
2022/08/19 11:59:00;;;;;;;3.10;1.50;;;26.50;61.10;;;;;;5055133;28;20133;-10
2022/08/19 12:01:26;;;;;;;2.92;1.25;;;26.50;61.30;;;;;;5053723;28;20029;-10
2022/08/19 12:03:54;;;;;;;5.72;1.80;;;26.50;60.20;;;;;;5054907;28;20037;-11
2022/08/19 12:06:25;;;;;;;3.22;1.40;;;26.60;59.70;;;;;;5055117;28;20500;-10
2022/08/19 12:08:51;;;;;;;3.92;1.65;;;26.90;59.10;;;;;;5054892;28;20098;-11
2022/08/19 12:11:17;;;;;;;2.15;1.50;;;27.10;58.90;;;;;;5055089;28;20504;-11
2022/08/19 12:13:47;;;;;;;2.45;1.40;;;27.40;58.30;;;;;;5054638;28;20105;-11
2022/08/19 12:16:17;;;;;;;5.10;1.30;;;27.70;57.20;;;;;;5054639;28;20037;-11
2022/08/19 12:18:46;;;;;;;3.15;1.33;;;28.10;56.90;;;;;;5054630;28;20029;-11
2022/08/19 12:21:20;;;;;;;5.15;1.55;;;28.50;56.30;;;;;;5054851;28;20479;-11
2022/08/19 12:23:49;;;;;;;6.35;1.70;;;28.80;55.40;;;;;;5054475;28;20052;-12
2022/08/19 12:26:15;;;;;;;4.82;2.13;;;29.00;55.10;;;;;;5054758;28;20086;-12
2022/08/19 12:28:41;;;;;;;5.78;1.60;;;29.00;54.90;;;;;;5054392;28;20029;-12
2022/08/19 12:31:08;;;;;;;2.75;1.40;;;28.80;55.10;;;;;;5054222;28;20413;-11
2022/08/19 12:33:34;;;;;;;5.43;1.92;;;28.60;55.80;;;;;;5054271;28;20163;-11
2022/08/19 12:36:05;;;;;;;7.03;1.92;;;28.40;56.30;;;;;;5053432;28;20130;-10
2022/08/19 12:38:32;;;;;;;2.83;1.52;;;28.30;56.50;;;;;;5054112;28;20491;-11
2022/08/19 12:40:58;;;;;;;4.97;1.48;;;28.30;56.90;;;;;;5053614;28;20082;-11
2022/08/19 12:43:25;;;;;;;3.85;1.40;;;28.40;56.50;;;;;;5052914;28;20021;-12
2022/08/19 12:45:50;;;;;;;3.80;1.45;;;28.50;56.70;;;;;;5054411;28;20057;-11
2022/08/19 12:48:16;;;;;;;4.80;1.63;;;28.80;56.50;;;;;;5054153;28;20061;-11
2022/08/19 12:50:45;;;;;;;3.90;1.42;;;29.20;55.30;;;;;;5053990;28;20544;-11
2022/08/19 12:53:12;;;;;;;5.22;2.08;;;29.70;54.10;;;;;;5052043;28;20142;-11
2022/08/19 12:55:38;;;;;;;3.40;1.27;;;30.00;52.60;;;;;;5053862;28;20080;-11
2022/08/19 12:58:04;;;;;;;6.50;1.55;;;30.20;52.40;;;;;;5053165;28;20056;-11
2022/08/19 13:00:32;;;;;;;2.67;1.42;;;30.30;50.90;;;;;;5054420;28;20103;-11
2022/08/19 13:02:59;;;;;;;3.08;1.13;;;30.20;50.80;;;;;;5053903;28;20029;-11
2022/08/19 13:05:31;;;;;;;5.10;1.20;;;30.20;51.00;;;;;;5054076;28;20481;-11
2022/08/19 13:08:02;;;;;;;3.08;1.40;;;30.30;50.30;;;;;;5052809;28;20036;-11
2022/08/19 13:10:34;;;;;;;4.05;1.75;;;30.30;51.10;;;;;;5054225;28;20036;-11
2022/08/19 13:13:03;;;;;;;3.08;1.30;;;30.30;51.30;;;;;;5053673;28;20050;-11
2022/08/19 13:15:32;;;;;;;2.33;1.35;;;30.20;50.70;;;;;;5053546;28;20025;-12
2022/08/19 13:17:58;;;;;;;3.10;1.15;;;29.90;50.40;;;;;;5053860;28;20043;-11